Loisir ou Compétition : Rejoignez un Club de la Fédération

Résultats

3e Derby des Mouilles

LES GLIERES

FS Hommes

Jury de Compétition

Délégué Technique :
FORT THOMAS (MB)
D.T. Adjoint :
 
Dir. Epreuve :
ROGUET JEAN CLAUDE (MB)

Caractéristiques de la Piste

Piste :
PLATEAU DES GLIERES
Distance :
2.5 km
Point Haut :
 
Point Bas :
 
Montée Tot. :
 
Montée Max. :
 
Homologation :
2018-33-1

Pénalité Appliquée :
 
Coefficient :
 

Catégorie :
U13
Style :
L
Clt Dos Clt/Cat Code An Nom Prénom Com Club Temps Ecart Points
Classés
1 65 1/U13 FFS2686938 2005 VALLEIX JORIS MB SCNP ROCHOIS 07:13.0 00:00.0
2 69 2/U13 FFS2671565 2005 COLOMBAN ALEXIS MB SCNP ROCHOIS 07:27.5 00:14.5
3 72 3/U13 FFS2667744 2005 BIZZOCCHI ESTEBAN MB SC D'AGY 07:28.4 00:15.4
4 70 4/U13 FFS2686695 2005 PERRILLAT BOTTONET JUDICA MB SC GD BORNAN 07:42.1 00:29.1
5 67 5/U13 FFS2686681 2005 DELOCHE LINO MB SC GD BORNAN 07:42.9 00:29.9
6 68 6/U13 FFS2676910 2005 CLAVEL SIMON MB CS LA CLUSAZ 07:46.3 00:33.3
7 77 7/U13 FFS2686539 2005 LACROIX MATTHIAS MB DRAGONS ANNY 07:52.6 00:39.6
8 74 8/U13 FFS2686793 2005 MARIE ADELIN MB SC D'AGY 07:52.9 00:39.9
9 79 9/U13 FFS2666324 2005 FAVRE FELIX KILLIAN MB SC GD BORNAN 07:53.9 00:40.9
10 71 10/U13 FFS2686939 2005 GRENARD MAX MB SCNP ROCHOIS 07:54.1 00:41.1
11 78 11/U13 FFS2686260 2005 BOSSUT AUGUSTIN MB PRAZ LYS-SOM 07:54.2 00:41.2
12 66 12/U13 FFS2686663 2005 PERRILLAT BOITEUX ANTHONY MB SC GD BORNAN 07:58.7 00:45.7
13 108 13/U13 FFS2671671 2005 DUPONT ILANN MJ OLYMP MT DOR 08:00.8 00:47.8
14 76 14/U13 FFS2673756 2005 PEYRON ARTHUR MB CS CHAMONIX 08:01.2 00:48.2
15 73 15/U13 FFS2686242 2005 VIGUIER QUENTIN MB CS LA CLUSAZ 08:04.3 00:51.3
16 91 16/U13 FFS2692552 2005 PETROD BASTIEN MB CNG 08:04.6 00:51.6
17 85 17/U13 FFS2686542 2005 PEYRET TILIEN MB DRAGONS ANNY 08:05.6 00:52.6
18 83 18/U13 FFS2686795 2005 DELERCE THIBAULT MB SC D'AGY 08:07.9 00:54.9
19 90 19/U13 FFS2686535 2005 FAILLENET JORIS MB DRAGONS ANNY 08:09.8 00:56.8
20 87 20/U13 FFS2687035 2005 CORNU MATHIEU MB CS CHAMONIX 08:15.0 01:02.0
21 75 21/U13 FFS2686672 2005 BROCHANT LUCAS MB SC GD BORNAN 08:16.5 01:03.5
22 88 22/U13 FFS2681171 2005 LUZET HUGO MB CS LA CLUSAZ 08:20.2 01:07.2
23 84 23/U13 FFS2686543 2005 ROMERI NATHAN MB DRAGONS ANNY 08:35.3 01:22.3
24 98 24/U13 FFS2690481 2005 THABUIS BASILE MB VILLARD/BOEG 08:36.3 01:23.3
25 86 25/U13 FFS2680344 2005 DELERCE GASPARD MB LES GETS S.C 08:40.9 01:27.9
26 107 26/U13 FFS2666342 2005 OUVRIER BUFFET JULES MB CS LA CLUSAZ 08:42.0 01:29.0
27 100 27/U13 FFS2692554 2005 ZAVARISE NOAH MB CNG 08:43.1 01:30.1
28 94 28/U13 FFS2686259 2005 DUCREY BRICE MB PRAZ LYS-SOM 08:45.2 01:32.2
29 96 29/U13 FFS2681304 2005 PERSONNAZ LOAN MB DRAGONS ANNY 08:46.1 01:33.1
30 95 30/U13 FFS2686262 2005 LESSERTISSEUX VALENTIN MB PRAZ LYS-SOM 08:54.9 01:41.9
31 89 31/U13 FFS2688658 2005 COLLOMB EMILIO MB VILLARD/BOEG 09:06.3 01:53.3
32 93 32/U13 FFS2687102 2005 SYLVESTRE BARON PAUL MB SCNP ROCHOIS 09:08.5 01:55.5
33 102 33/U13 FFS2676738 2005 CHETAIL JULES MB CS MEGEVE 09:09.4 01:56.4
34 97 34/U13 FFS2686905 2005 MIR EMARATI MILO MB CS CHAMONIX 09:25.9 02:12.9
35 105 35/U13 FFS2681424 2005 BOUVEROT TINO MB SC CONTAMINE 09:27.5 02:14.5
36 104 36/U13 FFS2686531 2005 BALDUCCI UGO MB DRAGONS ANNY 09:29.8 02:16.8
37 92 37/U13 FFS2688678 2005 REPELLIN CHARLES MB VILLARD/BOEG 09:32.7 02:19.7
38 103 38/U13 FFS2687856 2005 VEISY KILLIAN MB EN HT GIFFRE 09:38.9 02:25.9
39 109 39/U13 FFS2687490 2005 DAGAND LUBIN MB DRAGONS ANNY 12:51.8 05:38.8
Non partants
80 FFS2686940 2005 LEVET PROSPER MB SCNP ROCHOIS
81 FFS2686538 2005 JOMIER LOIS MB DRAGONS ANNY
82 FFS2690844 2005 HAEBERLI ARTHUR MB CS LA CLUSAZ
99 FFS2686801 2005 GARBY KEVIN MB SC D'AGY
101 FFS2692062 2005 AFLALO CYPRIEN MB CHABLAIS NOR
106 FFS2686914 2005 LESCOUFF RONAN MB CS CHAMONIX